createdAt,value
2024-04-18T00:02:11.988Z,98133.88
2024-04-18T00:04:43.324Z,98131.64
2024-04-18T00:07:14.660Z,98134.02
2024-04-18T00:09:45.736Z,98137.15
2024-04-18T00:12:17.046Z,98128.46
2024-04-18T00:14:48.126Z,98131.60
2024-04-18T00:17:17.794Z,98130.44
2024-04-18T00:19:48.759Z,98137.27
2024-04-18T00:22:19.375Z,98138.13
2024-04-18T00:24:50.827Z,98136.97
2024-04-18T00:27:21.985Z,98134.01
2024-04-18T00:29:52.016Z,98139.25
2024-04-18T00:32:23.189Z,98136.02
2024-04-18T00:34:54.333Z,98137.30
2024-04-18T00:37:25.581Z,98141.41
2024-04-18T00:39:56.731Z,98137.00
2024-04-18T00:42:27.881Z,98134.52
2024-04-18T00:44:58.910Z,98140.80
2024-04-18T00:47:30.495Z,98137.80
2024-04-18T00:50:02.232Z,98138.20
2024-04-18T00:52:33.366Z,98136.34
2024-04-18T00:55:04.925Z,98134.20
2024-04-18T00:57:38.125Z,98138.47
2024-04-18T01:00:11.631Z,98137.95
2024-04-18T01:02:44.533Z,98140.02
2024-04-18T01:05:16.480Z,98134.90
2024-04-18T01:07:47.730Z,98138.56
2024-04-18T01:10:18.913Z,98139.91
2024-04-18T01:12:59.960Z,98139.01
2024-04-18T01:15:31.067Z,98139.18
2024-04-18T01:18:02.270Z,98140.20
2024-04-18T01:20:34.400Z,98142.75
2024-04-18T01:23:06.876Z,98143.08
2024-04-18T01:25:38.022Z,98146.84
2024-04-18T01:28:07.808Z,98144.78
2024-04-18T01:30:38.708Z,98151.77
2024-04-18T01:33:09.929Z,98153.30
2024-04-18T01:35:41.358Z,98154.82
2024-04-18T01:38:12.338Z,98156.52
2024-04-18T01:40:43.332Z,98154.15
2024-04-18T01:43:14.388Z,98155.35
2024-04-18T01:45:46.024Z,98159.98
2024-04-18T01:48:17.353Z,98160.40
2024-04-18T01:50:48.800Z,98157.61
2024-04-18T01:53:19.756Z,98160.67
2024-04-18T01:55:50.778Z,98163.90
2024-04-18T01:58:21.990Z,98163.34
2024-04-18T02:00:53.084Z,98169.29
2024-04-18T02:03:22.743Z,98173.69
2024-04-18T02:05:54.178Z,98178.30
2024-04-18T02:08:25.124Z,98179.92
2024-04-18T02:10:56.275Z,98178.79
2024-04-18T02:13:27.335Z,98177.33
2024-04-18T02:15:56.817Z,98177.60
2024-04-18T02:18:28.044Z,98175.80
2024-04-18T02:20:59.146Z,98174.52
2024-04-18T02:23:29.815Z,98177.91
2024-04-18T02:26:01.093Z,98175.14
2024-04-18T02:28:32.513Z,98178.88
2024-04-18T02:31:04.450Z,98174.70
2024-04-18T02:33:35.918Z,98178.42
2024-04-18T02:36:07.658Z,98177.52
2024-04-18T02:38:38.644Z,98179.92
2024-04-18T02:41:08.903Z,98184.48
2024-04-18T02:43:39.985Z,98184.49
2024-04-18T02:46:09.706Z,98178.70
2024-04-18T02:48:40.885Z,98182.77
2024-04-18T02:51:10.654Z,98185.50
2024-04-18T02:53:41.700Z,98188.77
2024-04-18T02:56:12.758Z,98191.59
2024-04-18T02:58:42.562Z,98192.50
2024-04-18T03:01:13.738Z,98192.29
2024-04-18T03:03:44.807Z,98193.65
2024-04-18T03:06:16.130Z,98199.14
2024-04-18T03:08:46.310Z,98195.92
2024-04-18T03:11:17.466Z,98198.54
2024-04-18T03:13:48.457Z,98200.47
2024-04-18T03:16:19.715Z,98198.10
2024-04-18T03:18:50.967Z,98198.82
2024-04-18T03:21:22.001Z,98202.33
2024-04-18T03:23:53.330Z,98205.31
2024-04-18T03:26:24.694Z,98209.43
2024-04-18T03:28:56.272Z,98212.77
2024-04-18T03:31:28.618Z,98214.83
2024-04-18T03:33:59.820Z,98214.05
2024-04-18T03:36:31.393Z,98215.59
2024-04-18T03:39:03.622Z,98215.56
2024-04-18T03:41:35.321Z,98216.05
2024-04-18T03:44:06.657Z,98217.43
2024-04-18T03:46:38.162Z,98221.55
2024-04-18T03:49:09.659Z,98224.46
2024-04-18T03:51:40.846Z,98224.48
2024-04-18T03:54:11.907Z,98227.14
2024-04-18T03:56:42.105Z,98231.92
2024-04-18T03:59:13.684Z,98230.02
2024-04-18T04:01:44.963Z,98232.58
2024-04-18T04:04:16.048Z,98233.60
2024-04-18T04:06:47.260Z,98235.83
2024-04-18T04:09:18.399Z,98239.89
2024-04-18T04:11:48.341Z,98246.36
2024-04-18T04:14:19.643Z,98246.52
2024-04-18T04:16:50.852Z,98248.48
2024-04-18T04:19:21.965Z,98253.59
2024-04-18T04:21:53.589Z,98257.17
2024-04-18T04:24:24.174Z,98260.89
2024-04-18T04:26:55.751Z,98264.52
2024-04-18T04:29:26.694Z,98265.65
2024-04-18T04:31:57.793Z,98265.48
2024-04-18T04:34:28.856Z,98265.98
2024-04-18T04:36:58.553Z,98272.13
2024-04-18T04:39:28.245Z,98276.41
2024-04-18T04:41:59.411Z,98280.85
2024-04-18T04:44:28.848Z,98277.59
2024-04-18T04:47:00.185Z,98283.56
2024-04-18T04:49:31.427Z,98288.65
2024-04-18T04:52:02.545Z,98289.02
2024-04-18T04:54:32.263Z,98293.84
2024-04-18T04:57:03.816Z,98293.02
2024-04-18T04:59:34.712Z,98299.71
2024-04-18T05:02:06.407Z,98302.35
2024-04-18T05:04:37.673Z,98306.68
2024-04-18T05:07:09.094Z,98307.48
2024-04-18T05:09:40.353Z,98312.40
2024-04-18T05:12:11.713Z,98315.42
2024-04-18T05:14:42.710Z,98319.46
2024-04-18T05:17:13.748Z,98322.98
2024-04-18T05:19:45.255Z,98327.16
2024-04-18T05:22:14.934Z,98329.12
2024-04-18T05:24:46.261Z,98335.61
2024-04-18T05:27:17.548Z,98340.08
2024-04-18T05:30:02.554Z,98349.58
2024-04-18T05:32:34.024Z,98353.17
2024-04-18T05:35:05.450Z,98351.77
2024-04-18T05:37:36.769Z,98353.84
2024-04-18T05:40:10.139Z,98354.77
2024-04-18T05:42:41.223Z,98356.27
2024-04-18T05:45:12.302Z,98361.99
2024-04-18T05:47:43.506Z,98368.28
2024-04-18T05:50:14.832Z,98368.78
2024-04-18T05:52:46.003Z,98373.18
2024-04-18T05:55:17.314Z,98381.59
2024-04-18T05:57:48.354Z,98384.76
2024-04-18T06:00:18.265Z,98390.91
2024-04-18T06:02:47.868Z,98390.64
2024-04-18T06:05:19.349Z,98394.04
2024-04-18T06:07:50.392Z,98393.96
2024-04-18T06:10:22.019Z,98399.21
2024-04-18T06:12:53.250Z,98405.52
2024-04-18T06:15:24.408Z,98413.98
2024-04-18T06:17:55.711Z,98415.77
2024-04-18T06:20:27.579Z,98417.91
2024-04-18T06:22:58.640Z,98423.20
2024-04-18T06:25:32.141Z,98426.61
2024-04-18T06:28:04.147Z,98430.18
2024-04-18T06:30:35.158Z,98439.14
2024-04-18T06:33:06.075Z,98442.16
2024-04-18T06:35:37.650Z,98451.27
2024-04-18T06:38:09.975Z,98450.22
2024-04-18T06:40:41.265Z,98457.13
2024-04-18T06:43:12.291Z,98457.59
2024-04-18T06:45:42.337Z,98458.05
2024-04-18T06:48:13.606Z,98464.88
2024-04-18T06:50:45.359Z,98462.67
2024-04-18T06:53:16.531Z,98466.92
2024-04-18T06:55:49.085Z,98466.14
2024-04-18T06:58:20.061Z,98469.63
2024-04-18T07:00:50.417Z,98472.66
2024-04-18T07:03:21.565Z,98478.10
2024-04-18T07:05:53.098Z,98473.63
2024-04-18T07:08:25.154Z,98473.98
2024-04-18T07:10:56.297Z,98475.50
2024-04-18T07:13:27.430Z,98478.33
2024-04-18T07:15:58.665Z,98482.27
2024-04-18T07:18:30.062Z,98486.96
2024-04-18T07:21:01.265Z,98486.66
2024-04-18T07:23:32.517Z,98492.23
2024-04-18T07:26:04.084Z,98492.61
2024-04-18T07:28:35.217Z,98492.02
2024-04-18T07:31:06.578Z,98498.05
2024-04-18T07:33:38.383Z,98499.06
2024-04-18T07:36:09.778Z,98500.16
2024-04-18T07:38:41.003Z,98503.10
2024-04-18T07:41:12.117Z,98504.20
2024-04-18T07:43:43.312Z,98501.84
2024-04-18T07:46:15.030Z,98509.16
2024-04-18T07:48:47.672Z,98507.37
2024-04-18T07:51:18.979Z,98513.64
2024-04-18T07:53:50.152Z,98513.85
2024-04-18T07:56:22.053Z,98517.30
2024-04-18T07:58:54.111Z,98518.67
2024-04-18T08:01:27.331Z,98520.95
2024-04-18T08:04:17.173Z,98522.92
2024-04-18T08:06:55.028Z,98529.08
2024-04-18T08:09:31.428Z,98535.89
2024-04-18T08:12:23.289Z,98537.55
2024-04-18T08:15:00.709Z,98540.39
2024-04-18T08:17:35.374Z,98542.70
2024-04-18T08:20:09.396Z,98548.80
2024-04-18T08:22:40.861Z,98550.77
2024-04-18T08:25:12.693Z,98554.84
2024-04-18T08:27:43.982Z,98554.64
2024-04-18T08:30:15.818Z,98564.59
2024-04-18T08:32:47.249Z,98563.54
2024-04-18T08:35:20.136Z,98564.70
2024-04-18T08:37:51.571Z,98566.46
2024-04-18T08:40:22.923Z,98566.80
2024-04-18T08:42:54.990Z,98567.52
2024-04-18T08:45:27.875Z,98567.05
2024-04-18T08:47:59.992Z,98570.11
2024-04-18T08:50:32.509Z,98572.25
2024-04-18T08:53:06.199Z,98571.34
2024-04-18T08:55:39.468Z,98577.23
2024-04-18T08:58:12.394Z,98577.69
2024-04-18T09:00:46.006Z,98577.90
2024-04-18T09:03:17.382Z,98576.84
2024-04-18T09:05:49.210Z,98585.98
2024-04-18T09:08:21.011Z,98585.34
2024-04-18T09:10:53.865Z,98590.42
2024-04-18T09:13:26.257Z,98590.06
2024-04-18T09:15:59.127Z,98590.16
2024-04-18T09:18:35.721Z,98593.95
2024-04-18T09:21:11.106Z,98595.33
2024-04-18T09:23:43.481Z,98593.13
2024-04-18T09:26:14.826Z,98597.80
2024-04-18T09:28:46.289Z,98601.92
2024-04-18T09:31:27.607Z,98600.87
2024-04-18T09:34:07.840Z,98599.16
2024-04-18T09:36:42.715Z,98602.20
2024-04-18T09:39:23.542Z,98604.64
2024-04-18T09:42:03.546Z,98603.73
2024-04-18T09:44:38.267Z,98602.59
2024-04-18T09:47:11.324Z,98604.86
2024-04-18T09:49:43.981Z,98597.30
2024-04-18T09:52:16.540Z,98596.84
2024-04-18T09:54:48.327Z,98600.42
2024-04-18T09:57:20.679Z,98603.60
2024-04-18T09:59:53.631Z,98606.53
2024-04-18T10:02:25.902Z,98604.35
2024-04-18T10:04:58.314Z,98605.04
2024-04-18T10:07:31.022Z,98609.65
2024-04-18T10:10:03.238Z,98606.86
2024-04-18T10:12:36.337Z,98606.14
2024-04-18T10:15:10.450Z,98603.56
2024-04-18T10:17:41.836Z,98606.66
2024-04-18T10:20:16.521Z,98603.92
2024-04-18T10:23:01.188Z,98601.67
2024-04-18T10:25:41.787Z,98606.33
2024-04-18T10:28:26.860Z,98611.25
2024-04-18T10:31:06.754Z,98608.09
2024-04-18T10:33:45.623Z,98609.33
2024-04-18T10:36:17.277Z,98611.39
2024-04-18T10:38:49.825Z,98608.33
2024-04-18T10:41:24.612Z,98609.27
2024-04-18T10:43:58.921Z,98609.29
2024-04-18T10:46:31.330Z,98611.80
2024-04-18T10:49:02.789Z,98616.00
2024-04-18T10:51:36.032Z,98615.96
2024-04-18T10:54:12.378Z,98618.40
2024-04-18T10:56:44.186Z,98625.89
2024-04-18T10:59:15.539Z,98629.90
2024-04-18T11:01:46.778Z,98631.63
2024-04-18T11:04:18.187Z,98629.08
2024-04-18T11:06:49.612Z,98631.42
2024-04-18T11:09:21.673Z,98633.92
2024-04-18T11:11:53.193Z,98633.14
2024-04-18T11:14:26.492Z,98631.64
2024-04-18T11:17:01.305Z,98626.06
2024-04-18T11:19:33.928Z,98626.04
2024-04-18T11:22:05.444Z,98622.35
2024-04-18T11:24:37.531Z,98622.45
2024-04-18T11:27:09.504Z,98627.47
2024-04-18T11:29:44.176Z,98627.53
2024-04-18T11:32:16.404Z,98626.88
2024-04-18T11:34:50.385Z,98630.44
2024-04-18T11:37:26.023Z,98626.10
2024-04-18T11:39:59.392Z,98625.69
2024-04-18T11:42:30.661Z,98624.35
2024-04-18T11:45:02.067Z,98623.05
2024-04-18T11:47:34.345Z,98623.18
2024-04-18T11:50:07.654Z,98618.95
2024-04-18T11:52:38.793Z,98623.42
2024-04-18T11:55:09.849Z,98625.81
2024-04-18T11:57:41.204Z,98625.25
2024-04-18T12:00:14.670Z,98624.76
2024-04-18T12:02:53.139Z,98617.48
2024-04-18T12:05:24.841Z,98615.19
2024-04-18T12:07:56.752Z,98617.04
2024-04-18T12:10:27.836Z,98615.31
2024-04-18T12:12:59.101Z,98618.33
2024-04-18T12:15:32.819Z,98610.98
2024-04-18T12:18:05.191Z,98612.76
2024-04-18T12:20:36.312Z,98616.75
2024-04-18T12:23:07.715Z,98616.77
2024-04-18T12:25:39.005Z,98622.81
2024-04-18T12:28:10.176Z,98628.64
2024-04-18T12:30:41.464Z,98632.73
2024-04-18T12:33:14.119Z,98634.34
2024-04-18T12:35:50.929Z,98639.45
2024-04-18T12:38:22.292Z,98642.48
2024-04-18T12:40:54.838Z,98648.89
2024-04-18T12:43:26.555Z,98646.92
2024-04-18T12:46:06.806Z,98642.40
2024-04-18T12:48:46.037Z,98642.31
2024-04-18T12:51:17.917Z,98643.80
2024-04-18T12:53:49.622Z,98637.29
2024-04-18T12:56:21.743Z,98637.69
2024-04-18T12:58:52.612Z,98639.99
2024-04-18T13:01:23.740Z,98643.07
2024-04-18T13:03:56.676Z,98637.76
2024-04-18T13:06:29.333Z,98634.95
2024-04-18T13:09:00.787Z,98627.84
2024-04-18T13:11:32.704Z,98624.85
2024-04-18T13:14:05.426Z,98626.86
2024-04-18T13:16:37.164Z,98620.69
2024-04-18T13:19:08.213Z,98618.65
2024-04-18T13:21:39.655Z,98618.71
2024-04-18T13:24:12.242Z,98622.89
2024-04-18T13:26:43.841Z,98627.37
2024-04-18T13:29:15.367Z,98635.64
2024-04-18T13:31:46.825Z,98638.83
2024-04-18T13:34:18.222Z,98636.98
2024-04-18T13:36:49.625Z,98640.13
2024-04-18T13:39:21.018Z,98647.20
2024-04-18T13:41:52.379Z,98650.20
2024-04-18T13:44:23.574Z,98655.88
2024-04-18T13:46:54.858Z,98652.64
2024-04-18T13:49:26.172Z,98644.02
2024-04-18T13:51:57.426Z,98641.16
2024-04-18T13:54:28.587Z,98640.15
2024-04-18T13:56:59.835Z,98640.38
2024-04-18T13:59:31.040Z,98639.10
2024-04-18T14:02:04.113Z,98642.80
2024-04-18T14:04:35.294Z,98641.84
2024-04-18T14:07:07.381Z,98637.34
2024-04-18T14:09:42.851Z,98636.94
2024-04-18T14:12:14.576Z,98632.36
2024-04-18T14:14:46.350Z,98632.36
2024-04-18T14:17:33.957Z,98631.95
2024-04-18T14:20:06.486Z,98626.85
2024-04-18T14:22:38.060Z,98626.42
2024-04-18T14:25:09.676Z,98622.00
2024-04-18T14:27:41.163Z,98621.39
2024-04-18T14:30:13.449Z,98622.27
2024-04-18T14:32:44.781Z,98619.05
2024-04-18T14:35:16.227Z,98617.95
2024-04-18T14:37:47.579Z,98615.08
2024-04-18T14:40:18.766Z,98615.98
2024-04-18T14:42:50.086Z,98615.98
2024-04-18T14:45:21.275Z,98614.32
2024-04-18T14:47:52.685Z,98612.40
2024-04-18T14:50:24.244Z,98617.71
2024-04-18T14:52:55.596Z,98619.30
2024-04-18T14:55:28.451Z,98620.10
2024-04-18T14:57:59.839Z,98615.44
2024-04-18T15:00:32.521Z,98619.68
2024-04-18T15:03:04.021Z,98612.84
2024-04-18T15:05:35.482Z,98606.06
2024-04-18T15:08:09.330Z,98602.92
2024-04-18T15:10:40.608Z,98599.29
2024-04-18T15:13:12.428Z,98596.13
2024-04-18T15:15:45.804Z,98592.88
2024-04-18T15:18:17.305Z,98593.86
2024-04-18T15:20:48.694Z,98602.96
2024-04-18T15:23:19.915Z,98601.31
2024-04-18T15:25:51.167Z,98600.31
2024-04-18T15:28:22.597Z,98596.09
2024-04-18T15:30:54.416Z,98600.25
2024-04-18T15:33:25.398Z,98593.98
2024-04-18T15:35:56.185Z,98589.64
2024-04-18T15:38:25.659Z,98591.65
2024-04-18T15:40:55.653Z,98593.88
2024-04-18T15:43:26.619Z,98589.81
2024-04-18T15:45:59.281Z,98586.91
2024-04-18T15:48:32.052Z,98589.91
2024-04-18T15:51:03.587Z,98591.39
2024-04-18T15:53:35.465Z,98596.14
2024-04-18T15:56:06.982Z,98597.27
2024-04-18T15:58:37.945Z,98600.42
2024-04-18T16:01:08.843Z,98596.98
2024-04-18T16:03:40.666Z,98600.12
2024-04-18T16:06:11.826Z,98606.36
2024-04-18T16:08:43.024Z,98607.19
2024-04-18T16:11:13.791Z,98615.25
2024-04-18T16:13:43.191Z,98615.26
2024-04-18T16:16:12.791Z,98616.11
2024-04-18T16:18:44.422Z,98618.50
2024-04-18T16:21:15.664Z,98615.48
2024-04-18T16:23:46.591Z,98616.06
2024-04-18T16:26:17.766Z,98618.52
2024-04-18T16:28:48.798Z,98620.92
2024-04-18T16:31:20.410Z,98619.31
2024-04-18T16:33:51.412Z,98618.27
2024-04-18T16:36:31.528Z,98620.20
2024-04-18T16:39:10.839Z,98617.41
2024-04-18T16:41:42.630Z,98611.70
2024-04-18T16:44:13.693Z,98610.60
2024-04-18T16:46:44.588Z,98613.33
2024-04-18T16:49:15.540Z,98606.75
2024-04-18T16:51:49.253Z,98608.56
2024-04-18T16:54:20.380Z,98610.77
2024-04-18T16:56:51.291Z,98609.91
2024-04-18T16:59:21.300Z,98616.23
2024-04-18T17:01:52.284Z,98616.67
2024-04-18T17:04:23.454Z,98619.34
2024-04-18T17:06:54.607Z,98615.81
2024-04-18T17:09:25.846Z,98618.83
2024-04-18T17:11:57.189Z,98619.55
2024-04-18T17:14:28.291Z,98624.26
2024-04-18T17:16:59.296Z,98628.24
2024-04-18T17:19:32.902Z,98621.13
2024-04-18T17:22:07.446Z,98617.95
2024-04-18T17:24:38.862Z,98620.46
2024-04-18T17:27:10.225Z,98618.20
2024-04-18T17:29:42.425Z,98615.52
2024-04-18T17:32:13.824Z,98622.14
2024-04-18T17:34:45.299Z,98625.21
2024-04-18T17:37:16.592Z,98623.82
2024-04-18T17:39:49.167Z,98627.84
2024-04-18T17:42:20.262Z,98627.68
2024-04-18T17:44:51.945Z,98629.98
2024-04-18T17:47:23.118Z,98628.00
2024-04-18T17:49:54.613Z,98631.59
2024-04-18T17:52:25.496Z,98630.66
2024-04-18T17:54:59.443Z,98631.77
2024-04-18T17:57:31.957Z,98630.52
2024-04-18T18:00:02.907Z,98633.27
2024-04-18T18:02:34.147Z,98635.92
2024-04-18T18:05:06.351Z,98634.70
2024-04-18T18:07:37.679Z,98634.87
2024-04-18T18:10:09.686Z,98637.21
2024-04-18T18:12:40.799Z,98638.89
2024-04-18T18:15:12.936Z,98645.21
2024-04-18T18:17:44.783Z,98647.59
2024-04-18T18:20:16.242Z,98649.14
2024-04-18T18:22:47.389Z,98650.17
2024-04-18T18:25:18.582Z,98652.25
2024-04-18T18:27:49.682Z,98653.59
2024-04-18T18:30:21.002Z,98654.58
2024-04-18T18:32:52.574Z,98657.40
2024-04-18T18:35:24.156Z,98655.63
2024-04-18T18:37:57.821Z,98660.20
2024-04-18T18:40:28.926Z,98665.27
2024-04-18T18:43:01.759Z,98662.58
2024-04-18T18:45:33.427Z,98665.02
2024-04-18T18:48:05.390Z,98671.90
2024-04-18T18:50:42.682Z,98674.84
2024-04-18T18:53:14.004Z,98674.36
2024-04-18T18:55:47.472Z,98673.38
2024-04-18T18:58:18.806Z,98674.95
2024-04-18T19:00:50.453Z,98676.70
2024-04-18T19:03:22.239Z,98674.34
2024-04-18T19:05:53.491Z,98676.31
2024-04-18T19:08:24.521Z,98671.91
2024-04-18T19:10:56.698Z,98676.40
2024-04-18T19:13:29.304Z,98673.67
2024-04-18T19:16:00.783Z,98672.01
2024-04-18T19:18:31.783Z,98672.96
2024-04-18T19:21:02.988Z,98675.93
2024-04-18T19:23:43.370Z,98674.03
2024-04-18T19:26:16.849Z,98672.92
2024-04-18T19:28:48.043Z,98673.05
2024-04-18T19:31:20.760Z,98672.16
2024-04-18T19:33:55.364Z,98668.79
2024-04-18T19:36:26.778Z,98667.14
2024-04-18T19:38:57.635Z,98670.43
2024-04-18T19:41:28.556Z,98671.14
2024-04-18T19:43:58.196Z,98670.63
2024-04-18T19:46:29.132Z,98672.02
2024-04-18T19:49:00.799Z,98667.71
2024-04-18T19:51:33.219Z,98656.70
2024-04-18T19:54:04.607Z,98657.52
2024-04-18T19:56:35.956Z,98654.89
2024-04-18T19:59:07.292Z,98654.81
2024-04-18T20:01:38.955Z,98651.81
2024-04-18T20:04:10.241Z,98652.27
2024-04-18T20:06:42.624Z,98651.84
2024-04-18T20:09:14.097Z,98652.84
2024-04-18T20:11:45.028Z,98651.07
2024-04-18T20:14:14.624Z,98650.44
2024-04-18T20:16:45.805Z,98648.89
2024-04-18T20:19:17.938Z,98649.09
2024-04-18T20:21:49.535Z,98650.23
2024-04-18T20:24:20.558Z,98649.92
2024-04-18T20:26:52.091Z,98649.17
2024-04-18T20:29:21.874Z,98647.06
2024-04-18T20:31:51.430Z,98650.66
2024-04-18T20:34:23.295Z,98652.00
2024-04-18T20:36:54.317Z,98651.02
2024-04-18T20:39:23.765Z,98650.41
2024-04-18T20:41:55.274Z,98647.41
2024-04-18T20:44:26.197Z,98646.30
2024-04-18T20:46:57.132Z,98644.48
2024-04-18T20:49:28.443Z,98641.18
2024-04-18T20:52:00.124Z,98639.73
2024-04-18T20:54:31.217Z,98638.31
2024-04-18T20:57:02.315Z,98640.13
2024-04-18T20:59:31.965Z,98637.22
2024-04-18T21:02:03.026Z,98636.77
2024-04-18T21:04:34.669Z,98633.66
2024-04-18T21:07:06.353Z,98637.05
2024-04-18T21:09:37.627Z,98634.52
2024-04-18T21:12:09.729Z,98632.77
2024-04-18T21:14:41.273Z,98629.89
2024-04-18T21:17:12.378Z,98629.13
2024-04-18T21:19:43.838Z,98626.37
2024-04-18T21:22:14.888Z,98628.73
2024-04-18T21:24:44.772Z,98626.98
2024-04-18T21:27:16.088Z,98623.20
2024-04-18T21:29:47.955Z,98625.24
2024-04-18T21:32:19.541Z,98620.48
2024-04-18T21:34:50.675Z,98619.44
2024-04-18T21:37:21.649Z,98619.52
2024-04-18T21:39:52.943Z,98615.27
2024-04-18T21:42:24.806Z,98614.90
2024-04-18T21:44:55.814Z,98611.13
2024-04-18T21:47:25.519Z,98611.45
2024-04-18T21:49:56.684Z,98616.06
2024-04-18T21:52:28.349Z,98609.33
2024-04-18T21:54:59.612Z,98607.76
2024-04-18T21:57:30.777Z,98606.98
2024-04-18T22:00:01.720Z,98600.92
2024-04-18T22:02:33.647Z,98602.34
2024-04-18T22:05:05.144Z,98602.29
2024-04-18T22:07:36.370Z,98601.79
2024-04-18T22:10:09.874Z,98595.35
2024-04-18T22:12:41.054Z,98602.34
2024-04-18T22:15:12.626Z,98603.48
2024-04-18T22:17:43.804Z,98602.20
2024-04-18T22:20:14.792Z,98603.42
2024-04-18T22:22:46.368Z,98596.95
2024-04-18T22:25:17.675Z,98594.26
2024-04-18T22:27:48.722Z,98592.25
2024-04-18T22:30:19.847Z,98590.30
2024-04-18T22:32:49.655Z,98591.53
2024-04-18T22:35:19.564Z,98586.64
2024-04-18T22:37:49.558Z,98588.97
2024-04-18T22:40:21.065Z,98581.86
2024-04-18T22:42:52.350Z,98578.93
2024-04-18T22:45:23.383Z,98576.41
2024-04-18T22:47:54.659Z,98568.90
2024-04-18T22:50:25.811Z,98567.18
2024-04-18T22:52:56.858Z,98563.22
2024-04-18T22:55:26.342Z,98566.58
2024-04-18T22:58:01.255Z,98564.98
2024-04-18T23:00:36.251Z,98565.58
2024-04-18T23:03:08.221Z,98564.64
2024-04-18T23:05:39.692Z,98562.90
2024-04-18T23:08:11.127Z,98560.68
2024-04-18T23:10:42.452Z,98559.21
2024-04-18T23:13:13.695Z,98562.23
2024-04-18T23:15:45.018Z,98557.77
2024-04-18T23:18:16.668Z,98552.94
2024-04-18T23:20:47.976Z,98549.65
2024-04-18T23:23:19.464Z,98544.11
2024-04-18T23:25:50.694Z,98542.08
2024-04-18T23:28:22.080Z,98542.44
2024-04-18T23:30:51.757Z,98540.91
2024-04-18T23:33:23.036Z,98539.76
2024-04-18T23:35:54.195Z,98540.39
2024-04-18T23:38:23.776Z,98536.42
2024-04-18T23:40:54.850Z,98533.77
2024-04-18T23:43:26.115Z,98527.73
2024-04-18T23:45:57.767Z,98531.55
2024-04-18T23:48:28.903Z,98527.75
2024-04-18T23:50:59.991Z,98521.06
2024-04-18T23:53:29.574Z,98514.56
2024-04-18T23:56:00.816Z,98512.32
2024-04-18T23:58:33.908Z,98506.60
